Time;durP1;ratioP1;P1;durP2;ratioP2;P2;SDS_P1;SDS_P2;PMS_P1;PMS_P2;Temp;Humidity;BMP_temperature;BMP_pressure;BME280_temperature;BME280_humidity;BME280_pressure;Samples;Min_cycle;Max_cycle;Signal;HPM_P1;HPM_P2
2022/02/18 00:02:11;;;;;;;34.65;4.13;;;;;;;;;;4995619;28;20145;-35
2022/02/18 00:04:38;;;;;;;25.20;3.63;;;;;;;;;;5012615;28;20034;-37
2022/02/18 00:07:05;;;;;;;39.63;4.03;;;;;;;;;;5013167;28;20065;-35
2022/02/18 00:09:32;;;;;;;42.00;4.10;;;;;;;;;;5012890;28;20081;-35
2022/02/18 00:11:59;;;;;;;44.15;3.72;;;;;;;;;;5013206;28;20046;-37
2022/02/18 00:14:26;;;;;;;45.97;4.10;;;;;;;;;;5012929;28;20048;-38
2022/02/18 00:16:53;;;;;;;51.42;4.45;;;;;;;;;;5013412;28;20030;-38
2022/02/18 00:19:20;;;;;;;50.90;4.30;;;;;;;;;;5013522;28;20022;-37
2022/02/18 00:21:49;;;;;;;37.28;3.72;;;;;;;;;;5012830;28;20068;-38
2022/02/18 00:24:16;;;;;;;35.97;3.65;;;;;;;;;;5013252;28;20044;-38
2022/02/18 00:26:44;;;;;;;39.70;3.92;;;;;;;;;;5013992;28;20035;-38
2022/02/18 00:29:11;;;;;;;48.30;4.22;;;;;;;;;;5013936;28;20026;-38
2022/02/18 00:31:38;;;;;;;44.05;4.07;;;;;;;;;;5013540;28;20033;-38
2022/02/18 00:34:05;;;;;;;42.63;3.80;;;;;;;;;;5013714;28;20026;-36
2022/02/18 00:36:32;;;;;;;30.40;3.88;;;;;;;;;;5013607;28;20546;-35
2022/02/18 00:38:59;;;;;;;31.15;3.22;;;;;;;;;;5013489;28;20034;-35
2022/02/18 00:41:26;;;;;;;47.42;4.18;;;;;;;;;;5012443;28;20172;-35
2022/02/18 00:43:54;;;;;;;40.75;3.60;;;;;;;;;;5013421;28;20033;-36
2022/02/18 00:46:21;;;;;;;34.25;2.92;;;;;;;;;;5013185;28;20099;-36
2022/02/18 00:48:48;;;;;;;35.42;3.72;;;;;;;;;;5013432;28;20502;-35
2022/02/18 00:51:15;;;;;;;26.90;2.83;;;;;;;;;;5013234;28;20033;-36
2022/02/18 00:53:43;;;;;;;39.30;3.85;;;;;;;;;;5013008;28;20033;-34
2022/02/18 00:56:10;;;;;;;34.83;3.13;;;;;;;;;;5013253;28;20026;-36
2022/02/18 00:58:37;;;;;;;22.95;2.67;;;;;;;;;;5013075;28;20372;-35
2022/02/18 01:01:05;;;;;;;32.75;3.17;;;;;;;;;;5012869;28;20479;-35
2022/02/18 01:03:32;;;;;;;33.28;3.15;;;;;;;;;;5013070;28;20022;-35
2022/02/18 01:05:59;;;;;;;25.98;3.13;;;;;;;;;;5013059;28;20487;-35
2022/02/18 01:08:26;;;;;;;28.55;3.15;;;;;;;;;;5012892;28;20052;-35
2022/02/18 01:10:53;;;;;;;15.77;2.30;;;;;;;;;;5013067;28;20036;-35
2022/02/18 01:13:20;;;;;;;23.08;2.75;;;;;;;;;;5017233;28;20060;-35
2022/02/18 01:15:47;;;;;;;22.15;2.75;;;;;;;;;;5021020;28;20405;-37
2022/02/18 01:18:14;;;;;;;24.27;2.47;;;;;;;;;;5017610;28;20463;-38
2022/02/18 01:20:41;;;;;;;23.05;2.72;;;;;;;;;;5012851;28;20507;-37
2022/02/18 01:23:08;;;;;;;22.98;2.75;;;;;;;;;;5012746;28;20030;-39
2022/02/18 01:25:35;;;;;;;21.40;2.63;;;;;;;;;;5026035;28;20029;-38
2022/02/18 01:28:02;;;;;;;21.88;2.72;;;;;;;;;;5032769;28;20483;-38
2022/02/18 01:30:29;;;;;;;25.23;2.25;;;;;;;;;;5031890;28;20041;-39
2022/02/18 01:32:56;;;;;;;16.05;2.33;;;;;;;;;;5032342;28;20029;-36
2022/02/18 01:35:23;;;;;;;18.20;2.65;;;;;;;;;;5032433;28;20473;-36
2022/02/18 01:37:53;;;;;;;18.40;2.25;;;;;;;;;;5028909;28;20384;-36
2022/02/18 01:40:20;;;;;;;15.80;2.17;;;;;;;;;;5029465;28;20030;-39
2022/02/18 01:42:47;;;;;;;19.58;2.90;;;;;;;;;;5022818;28;20383;-35
2022/02/18 01:45:15;;;;;;;18.27;2.58;;;;;;;;;;5021077;28;20100;-39
2022/02/18 01:47:42;;;;;;;21.50;2.35;;;;;;;;;;5023031;28;20499;-35
2022/02/18 01:50:09;;;;;;;21.42;2.13;;;;;;;;;;5023310;28;20022;-37
2022/02/18 01:52:37;;;;;;;16.92;2.60;;;;;;;;;;5021046;28;20030;-35
2022/02/18 01:55:10;;;;;;;13.82;2.17;;;;;;;;;;5021065;28;20038;-35
2022/02/18 01:57:39;;;;;;;15.57;2.17;;;;;;;;;;5017579;28;20075;-38
2022/02/18 02:00:07;;;;;;;14.52;1.95;;;;;;;;;;5007958;28;20483;-35
2022/02/18 02:02:35;;;;;;;14.55;2.08;;;;;;;;;;4994684;28;20317;-38
2022/02/18 02:05:02;;;;;;;19.25;2.28;;;;;;;;;;5014058;28;20046;-35
2022/02/18 02:07:29;;;;;;;15.73;2.15;;;;;;;;;;5013494;28;20068;-37
2022/02/18 02:09:56;;;;;;;21.55;2.38;;;;;;;;;;5014018;28;20022;-38
2022/02/18 02:12:23;;;;;;;14.50;1.90;;;;;;;;;;5013878;28;20068;-34
2022/02/18 02:14:50;;;;;;;20.60;2.47;;;;;;;;;;5026516;28;20021;-34
2022/02/18 02:17:17;;;;;;;12.63;1.67;;;;;;;;;;5022143;28;20037;-37
2022/02/18 02:19:45;;;;;;;15.75;2.10;;;;;;;;;;5024246;28;20022;-37
2022/02/18 02:22:31;;;;;;;18.63;1.95;;;;;;;;;;5026618;28;20033;-35
2022/02/18 02:24:58;;;;;;;21.67;2.38;;;;;;;;;;5020175;28;20030;-38
2022/02/18 02:27:26;;;;;;;22.35;2.97;;;;;;;;;;5014392;28;20025;-37
2022/02/18 02:29:53;;;;;;;16.77;2.10;;;;;;;;;;5017668;28;20483;-36
2022/02/18 02:32:20;;;;;;;19.45;2.53;;;;;;;;;;5028192;28;20732;-35
2022/02/18 02:34:47;;;;;;;17.35;2.67;;;;;;;;;;5024914;28;20107;-35
2022/02/18 02:37:14;;;;;;;20.02;2.75;;;;;;;;;;5027028;28;20738;-37
2022/02/18 02:39:41;;;;;;;20.13;2.70;;;;;;;;;;5024656;28;20040;-38
2022/02/18 02:42:09;;;;;;;15.00;2.40;;;;;;;;;;5025671;28;20479;-36
2022/02/18 02:44:36;;;;;;;16.42;1.90;;;;;;;;;;5024035;28;20026;-36
2022/02/18 02:47:04;;;;;;;21.77;3.38;;;;;;;;;;5023913;28;20041;-36
2022/02/18 02:49:31;;;;;;;28.00;3.08;;;;;;;;;;5018711;28;20284;-38
2022/02/18 02:51:58;;;;;;;24.25;3.53;;;;;;;;;;5016308;28;20061;-34
2022/02/18 02:54:25;;;;;;;16.92;2.80;;;;;;;;;;5018677;28;20126;-38
2022/02/18 02:56:52;;;;;;;30.23;3.50;;;;;;;;;;5025109;28;20105;-37
2022/02/18 02:59:20;;;;;;;22.80;3.00;;;;;;;;;;5023766;28;20361;-36
2022/02/18 03:01:47;;;;;;;23.13;2.92;;;;;;;;;;5035538;28;20029;-36
2022/02/18 03:04:13;;;;;;;22.05;2.88;;;;;;;;;;5034364;28;20026;-36
2022/02/18 03:06:41;;;;;;;16.35;2.72;;;;;;;;;;5025467;28;20025;-38
2022/02/18 03:09:09;;;;;;;11.75;2.42;;;;;;;;;;5024139;28;20025;-36
2022/02/18 03:11:36;;;;;;;19.30;2.53;;;;;;;;;;5025269;28;20028;-36
2022/02/18 03:14:04;;;;;;;17.23;2.53;;;;;;;;;;5025614;28;20046;-38
2022/02/18 03:16:31;;;;;;;23.55;2.65;;;;;;;;;;5023907;28;20056;-35
2022/02/18 03:18:58;;;;;;;28.67;3.15;;;;;;;;;;5025166;28;20131;-37
2022/02/18 03:21:25;;;;;;;25.63;3.08;;;;;;;;;;5025718;28;20026;-38
2022/02/18 03:23:55;;;;;;;19.80;2.70;;;;;;;;;;5021900;28;20042;-35
2022/02/18 03:26:22;;;;;;;24.10;2.53;;;;;;;;;;5024448;28;20414;-36
2022/02/18 03:28:49;;;;;;;22.55;2.67;;;;;;;;;;5025625;28;20022;-38
2022/02/18 03:31:16;;;;;;;24.40;2.35;;;;;;;;;;5027053;28;20036;-36
2022/02/18 03:33:43;;;;;;;18.17;2.45;;;;;;;;;;5035058;28;20037;-36
2022/02/18 03:36:10;;;;;;;15.13;2.30;;;;;;;;;;5035150;28;20032;-36
2022/02/18 03:38:38;;;;;;;15.93;2.25;;;;;;;;;;5035142;28;20491;-37
2022/02/18 03:41:05;;;;;;;20.40;2.70;;;;;;;;;;5033587;28;20435;-36
2022/02/18 03:43:32;;;;;;;20.50;2.35;;;;;;;;;;5035009;28;20030;-35
2022/02/18 03:45:59;;;;;;;21.75;2.85;;;;;;;;;;5034816;28;20032;-35
2022/02/18 03:48:26;;;;;;;19.58;2.65;;;;;;;;;;5017164;28;20082;-36
2022/02/18 03:50:53;;;;;;;19.73;2.50;;;;;;;;;;5034824;28;20168;-35
2022/02/18 03:53:20;;;;;;;23.55;2.35;;;;;;;;;;5034301;28;20038;-35
2022/02/18 03:55:49;;;;;;;18.58;2.20;;;;;;;;;;5034760;28;20041;-36
2022/02/18 03:58:16;;;;;;;14.00;2.58;;;;;;;;;;5034566;28;20083;-36
2022/02/18 04:00:43;;;;;;;18.05;2.10;;;;;;;;;;5034489;28;20387;-36
2022/02/18 04:03:10;;;;;;;10.80;2.08;;;;;;;;;;5034521;28;20040;-36
2022/02/18 04:05:37;;;;;;;16.00;2.47;;;;;;;;;;5034614;28;20112;-36
2022/02/18 04:08:04;;;;;;;18.27;2.50;;;;;;;;;;5034315;28;20040;-35
2022/02/18 04:10:31;;;;;;;18.65;2.33;;;;;;;;;;5034344;28;20511;-36
2022/02/18 04:12:58;;;;;;;15.98;1.95;;;;;;;;;;5034174;28;20041;-36
2022/02/18 04:15:25;;;;;;;15.77;2.20;;;;;;;;;;5034221;28;20108;-35
2022/02/18 04:17:52;;;;;;;15.23;2.45;;;;;;;;;;5034241;28;20104;-36
2022/02/18 04:20:19;;;;;;;14.38;2.15;;;;;;;;;;5034167;28;20017;-36
2022/02/18 04:22:46;;;;;;;21.20;1.77;;;;;;;;;;5034228;28;20033;-36
2022/02/18 04:25:13;;;;;;;11.43;2.00;;;;;;;;;;5034132;28;20029;-36
2022/02/18 04:27:40;;;;;;;17.88;2.15;;;;;;;;;;5034099;28;20072;-36
2022/02/18 04:30:07;;;;;;;15.77;2.35;;;;;;;;;;5033940;28;20030;-35
2022/02/18 04:32:34;;;;;;;11.07;1.98;;;;;;;;;;5033845;28;20055;-35
2022/02/18 04:35:01;;;;;;;13.48;2.17;;;;;;;;;;5034010;28;20117;-34
2022/02/18 04:37:28;;;;;;;10.93;1.95;;;;;;;;;;5033961;28;20427;-35
2022/02/18 04:39:55;;;;;;;10.65;1.80;;;;;;;;;;5033743;28;20045;-35
2022/02/18 04:42:22;;;;;;;14.80;2.45;;;;;;;;;;5033885;28;20091;-34
2022/02/18 04:44:49;;;;;;;11.65;1.50;;;;;;;;;;5033807;28;20030;-35
2022/02/18 04:47:16;;;;;;;17.58;2.35;;;;;;;;;;5033815;28;20049;-35
2022/02/18 04:49:45;;;;;;;14.85;2.05;;;;;;;;;;5033605;28;20466;-35
2022/02/18 04:52:13;;;;;;;12.90;2.08;;;;;;;;;;5033127;28;20079;-35
2022/02/18 04:54:40;;;;;;;15.30;2.10;;;;;;;;;;5033512;28;20073;-35
2022/02/18 04:57:07;;;;;;;12.68;2.30;;;;;;;;;;5033624;28;20029;-34
2022/02/18 04:59:34;;;;;;;15.77;2.25;;;;;;;;;;5033384;28;20071;-35
2022/02/18 05:02:01;;;;;;;10.98;1.60;;;;;;;;;;5015829;28;20037;-35
2022/02/18 05:04:28;;;;;;;9.80;1.80;;;;;;;;;;5033469;28;20392;-34
2022/02/18 05:06:56;;;;;;;13.57;2.08;;;;;;;;;;5033452;28;20029;-34
2022/02/18 05:09:23;;;;;;;13.70;2.20;;;;;;;;;;5015559;28;20437;-34
2022/02/18 05:11:50;;;;;;;16.25;2.08;;;;;;;;;;5033248;28;20392;-34
2022/02/18 05:14:17;;;;;;;16.55;2.28;;;;;;;;;;5033220;28;20482;-35
2022/02/18 05:16:45;;;;;;;11.77;1.95;;;;;;;;;;5033346;28;20105;-34
2022/02/18 05:19:12;;;;;;;13.65;1.70;;;;;;;;;;5033253;28;20025;-35
2022/02/18 05:21:40;;;;;;;11.90;1.77;;;;;;;;;;5033019;28;20025;-34
2022/02/18 05:24:07;;;;;;;11.82;1.65;;;;;;;;;;5033238;28;20377;-36
2022/02/18 05:26:35;;;;;;;14.63;1.83;;;;;;;;;;5033149;28;20536;-34
2022/02/18 05:29:02;;;;;;;12.73;1.85;;;;;;;;;;5032923;28;20052;-35
2022/02/18 05:31:29;;;;;;;10.43;1.73;;;;;;;;;;5033052;28;20021;-35
2022/02/18 05:33:56;;;;;;;12.63;1.95;;;;;;;;;;5032948;28;20029;-35
2022/02/18 05:36:23;;;;;;;6.50;1.65;;;;;;;;;;5033060;28;20079;-35
2022/02/18 05:38:50;;;;;;;10.85;1.90;;;;;;;;;;5033078;28;20026;-35
2022/02/18 05:41:17;;;;;;;11.63;2.13;;;;;;;;;;5015123;28;20395;-36
2022/02/18 05:43:44;;;;;;;9.52;1.80;;;;;;;;;;5032844;28;20036;-35
2022/02/18 05:46:11;;;;;;;14.27;1.80;;;;;;;;;;5032896;28;20030;-36
2022/02/18 05:48:38;;;;;;;8.63;1.70;;;;;;;;;;5032944;28;20045;-35
2022/02/18 05:51:05;;;;;;;12.77;1.63;;;;;;;;;;5015017;28;20503;-35
2022/02/18 05:53:32;;;;;;;10.88;2.00;;;;;;;;;;5015099;28;20446;-35
2022/02/18 05:55:59;;;;;;;11.35;1.90;;;;;;;;;;5032894;28;20097;-35
2022/02/18 05:58:26;;;;;;;11.68;1.50;;;;;;;;;;5032816;28;20103;-35
2022/02/18 06:00:53;;;;;;;8.27;1.45;;;;;;;;;;5032665;28;20026;-34
2022/02/18 06:03:20;;;;;;;6.07;1.10;;;;;;;;;;5033941;28;20029;-36
2022/02/18 06:05:50;;;;;;;12.98;1.80;;;;;;;;;;5036809;28;20476;-36
2022/02/18 06:08:18;;;;;;;13.32;1.55;;;;;;;;;;5036804;28;20032;-35
2022/02/18 06:10:45;;;;;;;15.10;1.85;;;;;;;;;;5036564;28;20033;-35
2022/02/18 06:13:12;;;;;;;11.30;2.00;;;;;;;;;;5036418;28;20080;-35
2022/02/18 06:15:39;;;;;;;6.85;1.58;;;;;;;;;;5036539;28;20369;-35
2022/02/18 06:18:06;;;;;;;14.60;1.55;;;;;;;;;;5036608;28;20022;-36
2022/02/18 06:20:33;;;;;;;10.57;1.70;;;;;;;;;;5036430;28;20479;-35
2022/02/18 06:23:00;;;;;;;9.02;2.15;;;;;;;;;;5036465;28;20030;-35
2022/02/18 06:25:27;;;;;;;7.90;1.45;;;;;;;;;;5036368;28;20018;-36
2022/02/18 06:28:07;;;;;;;8.45;1.40;;;;;;;;;;5036201;28;20040;-35
2022/02/18 06:30:34;;;;;;;14.68;1.45;;;;;;;;;;5036277;28;20068;-35
2022/02/18 06:33:01;;;;;;;8.10;1.42;;;;;;;;;;5036166;28;20040;-35
2022/02/18 06:35:29;;;;;;;10.15;1.50;;;;;;;;;;5036346;28;20497;-35
2022/02/18 06:37:56;;;;;;;8.23;1.50;;;;;;;;;;5036215;28;20467;-35
2022/02/18 06:40:23;;;;;;;9.55;1.60;;;;;;;;;;5036132;28;20463;-36
2022/02/18 06:42:50;;;;;;;8.07;1.20;;;;;;;;;;5036184;28;20040;-35
2022/02/18 06:45:17;;;;;;;10.88;1.38;;;;;;;;;;5036115;28;20022;-35
2022/02/18 06:47:46;;;;;;;8.25;1.52;;;;;;;;;;5035923;28;20038;-35
2022/02/18 06:50:17;;;;;;;9.70;2.17;;;;;;;;;;5036212;28;20444;-35
2022/02/18 06:52:45;;;;;;;9.75;2.13;;;;;;;;;;5036144;28;20406;-35
2022/02/18 06:55:12;;;;;;;14.23;2.00;;;;;;;;;;5035909;28;20022;-35
2022/02/18 06:57:43;;;;;;;9.30;2.40;;;;;;;;;;5035702;28;20383;-35
2022/02/18 07:00:11;;;;;;;9.68;2.15;;;;;;;;;;5035785;28;20025;-35
2022/02/18 07:02:38;;;;;;;11.98;2.30;;;;;;;;;;5035696;28;20076;-35
2022/02/18 07:05:07;;;;;;;11.60;2.35;;;;;;;;;;5035609;28;20060;-35
2022/02/18 07:07:34;;;;;;;7.45;1.98;;;;;;;;;;5035708;28;20026;-35
2022/02/18 07:10:02;;;;;;;7.60;1.50;;;;;;;;;;5035467;28;20377;-35
2022/02/18 07:12:29;;;;;;;8.95;1.45;;;;;;;;;;5035331;28;20119;-34
2022/02/18 07:14:56;;;;;;;10.63;1.73;;;;;;;;;;5035187;28;20032;-34
2022/02/18 07:17:24;;;;;;;7.80;1.52;;;;;;;;;;5035521;28;20038;-35
2022/02/18 07:19:52;;;;;;;6.05;1.83;;;;;;;;;;5035239;28;20059;-35
2022/02/18 07:22:19;;;;;;;10.05;1.73;;;;;;;;;;5035406;28;20075;-35
2022/02/18 07:24:46;;;;;;;12.85;1.85;;;;;;;;;;5035322;28;20026;-35
2022/02/18 07:27:14;;;;;;;9.50;1.63;;;;;;;;;;5035272;28;20025;-36
2022/02/18 07:29:41;;;;;;;10.80;1.58;;;;;;;;;;5034611;28;20048;-34
2022/02/18 07:32:08;;;;;;;15.77;1.95;;;;;;;;;;5035191;28;20025;-34
2022/02/18 07:34:35;;;;;;;7.50;1.88;;;;;;;;;;5035150;28;20037;-35
2022/02/18 07:37:02;;;;;;;15.80;2.25;;;;;;;;;;5035166;28;20040;-35
2022/02/18 07:39:29;;;;;;;13.90;2.10;;;;;;;;;;5035006;28;20104;-37
2022/02/18 07:41:57;;;;;;;12.50;1.55;;;;;;;;;;5035004;28;20503;-36
2022/02/18 07:44:24;;;;;;;10.55;1.70;;;;;;;;;;5034804;28;20041;-35
2022/02/18 07:46:51;;;;;;;16.08;1.60;;;;;;;;;;5035072;28;20030;-36
2022/02/18 07:49:18;;;;;;;11.98;1.67;;;;;;;;;;5034833;28;20475;-35
2022/02/18 07:51:45;;;;;;;13.23;1.52;;;;;;;;;;5034778;28;20052;-36
2022/02/18 07:54:12;;;;;;;9.98;1.40;;;;;;;;;;5034726;28;20112;-34
2022/02/18 07:56:39;;;;;;;12.68;1.33;;;;;;;;;;5034738;28;20040;-34
2022/02/18 07:59:06;;;;;;;13.77;1.45;;;;;;;;;;5034466;28;20029;-35
2022/02/18 08:01:33;;;;;;;8.95;1.50;;;;;;;;;;5034670;28;20044;-36
2022/02/18 08:04:00;;;;;;;7.85;1.20;;;;;;;;;;5034631;28;20064;-36
2022/02/18 08:06:27;;;;;;;7.65;1.45;;;;;;;;;;5034650;28;20112;-35
2022/02/18 08:08:54;;;;;;;7.75;1.52;;;;;;;;;;5034385;28;20030;-35
2022/02/18 08:11:21;;;;;;;12.15;1.48;;;;;;;;;;5034307;28;20553;-35
2022/02/18 08:13:48;;;;;;;6.53;1.40;;;;;;;;;;5034192;28;20049;-36
2022/02/18 08:16:16;;;;;;;7.72;1.20;;;;;;;;;;5034357;28;20021;-36
2022/02/18 08:18:43;;;;;;;8.95;1.63;;;;;;;;;;5034403;28;20078;-36
2022/02/18 08:21:15;;;;;;;7.45;1.50;;;;;;;;;;5034238;28;20082;-36
2022/02/18 08:23:42;;;;;;;8.13;1.25;;;;;;;;;;5034203;28;20041;-36
2022/02/18 08:26:09;;;;;;;7.20;1.65;;;;;;;;;;5033580;28;20119;-36
2022/02/18 08:28:36;;;;;;;13.38;1.90;;;;;;;;;;5034131;28;20057;-37
2022/02/18 08:31:03;;;;;;;16.00;2.17;;;;;;;;;;5034193;28;20432;-36
2022/02/18 08:33:30;;;;;;;10.02;1.52;;;;;;;;;;5033883;28;20034;-37
2022/02/18 08:35:57;;;;;;;10.80;1.80;;;;;;;;;;5034094;28;20026;-36
2022/02/18 08:38:24;;;;;;;11.82;1.30;;;;;;;;;;5033995;28;20025;-36
2022/02/18 08:40:51;;;;;;;14.98;1.90;;;;;;;;;;5033850;28;20106;-36
2022/02/18 08:43:20;;;;;;;6.10;1.30;;;;;;;;;;5033850;28;20104;-36
2022/02/18 08:45:47;;;;;;;10.77;1.88;;;;;;;;;;5033550;28;20061;-36
2022/02/18 08:48:14;;;;;;;9.38;1.00;;;;;;;;;;5033830;28;20115;-36
2022/02/18 08:50:42;;;;;;;11.02;1.80;;;;;;;;;;5024910;28;20034;-35
2022/02/18 08:53:09;;;;;;;15.70;2.30;;;;;;;;;;5013934;28;20025;-35
2022/02/18 08:55:36;;;;;;;13.27;1.58;;;;;;;;;;5013981;28;20109;-35
2022/02/18 08:58:03;;;;;;;13.57;1.85;;;;;;;;;;5013825;28;20030;-36
2022/02/18 09:00:31;;;;;;;9.13;1.75;;;;;;;;;;5013767;28;20052;-36
2022/02/18 09:02:58;;;;;;;10.82;1.58;;;;;;;;;;5013872;28;20033;-36
2022/02/18 09:05:25;;;;;;;7.07;1.30;;;;;;;;;;5013766;28;20508;-36
2022/02/18 09:07:53;;;;;;;12.65;1.63;;;;;;;;;;5013767;28;20088;-36
2022/02/18 09:10:20;;;;;;;10.85;1.40;;;;;;;;;;5013467;28;20543;-36
2022/02/18 09:12:47;;;;;;;11.23;2.10;;;;;;;;;;5013329;28;20049;-37
2022/02/18 09:15:16;;;;;;;8.93;1.45;;;;;;;;;;5013570;28;20077;-36
2022/02/18 09:17:43;;;;;;;8.75;1.73;;;;;;;;;;5013352;28;20560;-36
2022/02/18 09:20:11;;;;;;;8.32;1.50;;;;;;;;;;4995777;28;20037;-37
2022/02/18 09:22:38;;;;;;;10.10;1.38;;;;;;;;;;4995884;28;20072;-36
2022/02/18 09:25:05;;;;;;;11.70;1.55;;;;;;;;;;5013518;28;20054;-36
2022/02/18 09:27:33;;;;;;;9.80;1.70;;;;;;;;;;5013457;28;20029;-36
2022/02/18 09:30:02;;;;;;;13.35;1.70;;;;;;;;;;5013291;28;20034;-37
2022/02/18 09:32:29;;;;;;;10.18;1.63;;;;;;;;;;5013318;28;20497;-36
2022/02/18 09:34:58;;;;;;;11.60;0.98;;;;;;;;;;5013269;28;20034;-36
2022/02/18 09:37:25;;;;;;;9.38;1.77;;;;;;;;;;5013230;28;20045;-36
2022/02/18 09:39:52;;;;;;;11.55;1.60;;;;;;;;;;5013303;28;20036;-36
2022/02/18 09:42:20;;;;;;;12.45;1.77;;;;;;;;;;5013378;28;20112;-36
2022/02/18 09:44:49;;;;;;;10.45;1.48;;;;;;;;;;5013181;28;20041;-38
2022/02/18 09:47:17;;;;;;;12.65;1.70;;;;;;;;;;5013370;28;20476;-38
2022/02/18 09:49:45;;;;;;;14.55;1.75;;;;;;;;;;5012534;28;20134;-38
2022/02/18 09:52:13;;;;;;;17.20;1.85;;;;;;;;;;5013257;28;20068;-38
2022/02/18 09:54:40;;;;;;;16.08;1.77;;;;;;;;;;5013159;28;20092;-38
2022/02/18 09:57:07;;;;;;;25.08;1.98;;;;;;;;;;5013193;28;20392;-37
2022/02/18 09:59:36;;;;;;;18.48;2.30;;;;;;;;;;5013130;28;20050;-38
2022/02/18 10:02:04;;;;;;;23.77;2.67;;;;;;;;;;5013064;28;20080;-38
2022/02/18 10:04:31;;;;;;;17.15;2.20;;;;;;;;;;5013107;28;20061;-38
2022/02/18 10:06:58;;;;;;;23.40;2.55;;;;;;;;;;5013149;28;20018;-38
2022/02/18 10:09:37;;;;;;;12.18;1.90;;;;;;;;;;4995283;28;20056;-38
2022/02/18 10:12:05;;;;;;;30.27;2.80;;;;;;;;;;5012733;28;20073;-38
2022/02/18 10:14:55;;;;;;;15.77;1.83;;;;;;;;;;5012948;28;20029;-38
2022/02/18 10:17:37;;;;;;;29.35;2.58;;;;;;;;;;5003060;28;20056;-38
2022/02/18 10:20:13;;;;;;;35.80;3.53;;;;;;;;;;5012880;28;20026;-38
2022/02/18 10:22:40;;;;;;;22.42;2.55;;;;;;;;;;5012848;28;20101;-38
2022/02/18 10:25:10;;;;;;;17.63;1.98;;;;;;;;;;5012816;28;20038;-38
2022/02/18 10:27:43;;;;;;;20.30;1.90;;;;;;;;;;5012922;28;20045;-38
2022/02/18 10:30:09;;;;;;;;;;;;;;;;;;5013146;28;20038;-37
2022/02/18 10:32:41;;;;;;;19.10;2.00;;;;;;;;;;4994848;28;19917;-39
2022/02/18 10:35:08;;;;;;;17.40;2.50;;;;;;;;;;4992703;28;20030;-34
2022/02/18 10:37:36;;;;;;;17.75;2.22;;;;;;;;;;4992457;28;20081;-37
2022/02/18 10:40:08;;;;;;;15.90;2.38;;;;;;;;;;4992652;28;20032;-37
2022/02/18 10:42:34;;;;;;;;;;;;;;;;;;4992558;28;20038;-37
2022/02/18 10:45:20;;;;;;;12.82;2.20;;;;;;;;;;4992856;28;19999;-37
2022/02/18 10:47:48;;;;;;;17.55;2.20;;;;;;;;;;4992856;28;20018;-36
2022/02/18 10:50:16;;;;;;;27.35;2.28;;;;;;;;;;4995002;28;20476;-38
2022/02/18 10:52:44;;;;;;;21.63;2.35;;;;;;;;;;4996144;28;20030;-37
2022/02/18 10:55:11;;;;;;;31.75;2.72;;;;;;;;;;4996332;28;20050;-38
2022/02/18 10:57:38;;;;;;;18.33;2.42;;;;;;;;;;4996254;28;20058;-38
2022/02/18 11:00:16;;;;;;;25.98;2.88;;;;;;;;;;4996220;28;20034;-38
2022/02/18 11:02:50;;;;;;;22.73;2.65;;;;;;;;;;4996002;28;20062;-38
2022/02/18 11:05:24;;;;;;;27.85;2.13;;;;;;;;;;4995919;28;20042;-36
2022/02/18 11:07:52;;;;;;;26.92;2.60;;;;;;;;;;4976502;28;20452;-34
2022/02/18 11:10:35;;;;;;;24.70;2.90;;;;;;;;;;4959288;28;20027;-35
2022/02/18 11:13:03;;;;;;;38.67;3.45;;;;;;;;;;4976329;28;20058;-38
2022/02/18 11:15:30;;;;;;;44.08;3.13;;;;;;;;;;4976304;28;20109;-38
2022/02/18 11:17:58;;;;;;;26.45;2.25;;;;;;;;;;4976359;28;20524;-38
2022/02/18 11:20:26;;;;;;;120.60;6.38;;;;;;;;;;4976160;28;20361;-38
2022/02/18 11:22:54;;;;;;;85.32;4.30;;;;;;;;;;4992370;28;20026;-35
2022/02/18 11:25:21;;;;;;;62.53;4.60;;;;;;;;;;4995681;28;20062;-31
2022/02/18 11:27:49;;;;;;;560.25;36.15;;;;;;;;;;4995599;28;20027;-31
2022/02/18 11:30:16;;;;;;;99.60;7.40;;;;;;;;;;4995508;28;20021;-31
2022/02/18 11:33:01;;;;;;;36.78;4.40;;;;;;;;;;4995327;28;20072;-31
2022/02/18 11:35:30;;;;;;;55.28;4.47;;;;;;;;;;4995406;28;20030;-31
2022/02/18 11:38:10;;;;;;;33.97;3.47;;;;;;;;;;4995417;28;20385;-39
2022/02/18 11:40:55;;;;;;;39.92;3.53;;;;;;;;;;4995246;28;20022;-38
2022/02/18 11:43:34;;;;;;;92.57;4.85;;;;;;;;;;4995245;28;20034;-33
2022/02/18 11:46:06;;;;;;;42.80;2.92;;;;;;;;;;5012192;28;20546;-37
2022/02/18 11:48:36;;;;;;;40.03;4.05;;;;;;;;;;5008191;28;20392;-36
2022/02/18 11:51:07;;;;;;;119.95;13.20;;;;;;;;;;4994946;28;20030;-39
2022/02/18 11:53:38;;;;;;;166.13;14.30;;;;;;;;;;4994978;28;20035;-41
2022/02/18 11:56:06;;;;;;;100.07;10.48;;;;;;;;;;4994951;28;20077;-40
2022/02/18 11:58:48;;;;;;;318.50;29.05;;;;;;;;;;4994899;28;20113;-39
2022/02/18 12:01:15;;;;;;;;;;;;;;;;;;4994268;28;20030;-40
2022/02/18 12:03:42;;;;;;;118.32;14.13;;;;;;;;;;4994912;28;20339;-42
2022/02/18 12:06:10;;;;;;;110.80;11.40;;;;;;;;;;5002607;28;20080;-38
2022/02/18 12:08:39;;;;;;;139.48;12.23;;;;;;;;;;5007212;28;20076;-39
2022/02/18 12:11:09;;;;;;;96.65;8.85;;;;;;;;;;5003866;28;20033;-37
2022/02/18 12:13:54;;;;;;;68.40;7.18;;;;;;;;;;5008262;28;20123;-34
2022/02/18 12:16:22;;;;;;;52.45;7.07;;;;;;;;;;5010880;28;20036;-39
2022/02/18 12:19:08;;;;;;;35.58;5.53;;;;;;;;;;4994177;28;20550;-34
2022/02/18 12:21:54;;;;;;;41.38;6.25;;;;;;;;;;4993516;28;20026;-36
2022/02/18 12:24:40;;;;;;;33.45;4.53;;;;;;;;;;4994273;28;20034;-41
2022/02/18 12:27:28;;;;;;;28.50;5.22;;;;;;;;;;4993406;28;20031;-36
2022/02/18 12:29:56;;;;;;;29.70;3.67;;;;;;;;;;4994429;28;20117;-38
2022/02/18 12:32:23;;;;;;;29.95;3.72;;;;;;;;;;4992785;28;20405;-37
2022/02/18 12:35:00;;;;;;;28.52;3.83;;;;;;;;;;4994218;28;20042;-39
2022/02/18 12:37:27;;;;;;;22.95;3.67;;;;;;;;;;4993654;28;20546;-34
2022/02/18 12:39:55;;;;;;;17.35;2.63;;;;;;;;;;4993938;28;20434;-38
2022/02/18 12:42:26;;;;;;;20.30;2.97;;;;;;;;;;4994103;28;20034;-36
2022/02/18 12:44:55;;;;;;;20.92;2.90;;;;;;;;;;4994129;28;20023;-37
2022/02/18 12:47:23;;;;;;;47.17;4.93;;;;;;;;;;4993714;28;20034;-36
2022/02/18 12:49:52;;;;;;;37.78;4.63;;;;;;;;;;4993822;28;20026;-34
2022/02/18 12:52:19;;;;;;;33.92;4.25;;;;;;;;;;4993817;28;20039;-37
2022/02/18 12:54:50;;;;;;;28.60;4.47;;;;;;;;;;4993516;28;20129;-32
2022/02/18 12:57:17;;;;;;;17.33;3.70;;;;;;;;;;4993832;28;20547;-33
2022/02/18 12:59:44;;;;;;;25.63;3.70;;;;;;;;;;4993410;28;20030;-34
2022/02/18 13:02:12;;;;;;;26.88;4.10;;;;;;;;;;4993691;28;20030;-34
2022/02/18 13:04:39;;;;;;;24.92;4.03;;;;;;;;;;4993658;28;20046;-31
2022/02/18 13:07:10;;;;;;;26.65;3.75;;;;;;;;;;4993164;28;20026;-32
2022/02/18 13:09:38;;;;;;;36.80;3.95;;;;;;;;;;4993711;28;20153;-31
2022/02/18 13:12:05;;;;;;;32.50;4.05;;;;;;;;;;4993000;28;20061;-33
2022/02/18 13:14:32;;;;;;;21.92;3.67;;;;;;;;;;4993359;28;20058;-32
2022/02/18 13:16:59;;;;;;;32.45;4.68;;;;;;;;;;4993602;28;20085;-32
2022/02/18 13:19:43;;;;;;;39.00;4.85;;;;;;;;;;4976033;28;20492;-32
2022/02/18 13:22:14;;;;;;;34.85;4.80;;;;;;;;;;4993506;28;20142;-32
2022/02/18 13:24:40;;;;;;;28.95;4.95;;;;;;;;;;4993445;28;20034;-34
2022/02/18 13:27:14;;;;;;;29.00;5.25;;;;;;;;;;4993487;28;20058;-32
2022/02/18 13:29:42;;;;;;;37.22;4.85;;;;;;;;;;4993197;28;20223;-31
2022/02/18 13:32:19;;;;;;;42.38;5.63;;;;;;;;;;4993333;28;20034;-31
2022/02/18 13:34:49;;;;;;;25.05;4.93;;;;;;;;;;4993327;28;20061;-31
2022/02/18 13:37:17;;;;;;;30.45;5.18;;;;;;;;;;4993382;28;20117;-33
2022/02/18 13:39:48;;;;;;;36.95;5.88;;;;;;;;;;4993244;28;20037;-32
2022/02/18 13:42:15;;;;;;;32.97;5.85;;;;;;;;;;4993519;28;20061;-32
2022/02/18 13:45:00;;;;;;;35.50;5.05;;;;;;;;;;4993165;28;20034;-32
2022/02/18 13:47:30;;;;;;;28.83;4.78;;;;;;;;;;4993340;28;20488;-31
2022/02/18 13:49:58;;;;;;;29.98;5.20;;;;;;;;;;4993205;28;20026;-31
2022/02/18 13:52:25;;;;;;;37.17;5.28;;;;;;;;;;4993245;28;20077;-31
2022/02/18 13:54:52;;;;;;;52.97;6.13;;;;;;;;;;4993063;28;20049;-32
2022/02/18 13:57:23;;;;;;;38.90;5.28;;;;;;;;;;4993151;28;20030;-32
2022/02/18 13:59:50;;;;;;;36.90;6.00;;;;;;;;;;4992965;28;20034;-32
2022/02/18 14:02:18;;;;;;;30.00;6.30;;;;;;;;;;4975603;28;20041;-31
2022/02/18 14:04:49;;;;;;;33.58;5.93;;;;;;;;;;4992925;28;20396;-34
2022/02/18 14:07:19;;;;;;;39.55;6.10;;;;;;;;;;4993043;28;20030;-35
2022/02/18 14:09:52;;;;;;;49.65;5.93;;;;;;;;;;4993060;28;20030;-38
2022/02/18 14:12:39;;;;;;;49.35;6.05;;;;;;;;;;4992914;28;20158;-37
2022/02/18 14:15:07;;;;;;;45.92;6.22;;;;;;;;;;4986281;28;20105;-33
2022/02/18 14:17:34;;;;;;;51.25;5.65;;;;;;;;;;5012134;28;20498;-38
2022/02/18 14:20:02;;;;;;;61.28;7.95;;;;;;;;;;5011405;28;20392;-35
2022/02/18 14:22:29;;;;;;;49.45;6.15;;;;;;;;;;5006336;28;20031;-33
2022/02/18 14:24:57;;;;;;;45.67;5.35;;;;;;;;;;4994715;28;20037;-34
2022/02/18 14:27:24;;;;;;;34.83;5.38;;;;;;;;;;4996555;28;20372;-33
2022/02/18 14:29:55;;;;;;;63.00;7.25;;;;;;;;;;4996223;28;20081;-33
2022/02/18 14:32:26;;;;;;;47.08;6.68;;;;;;;;;;4996336;28;20056;-33
2022/02/18 14:35:00;;;;;;;48.92;6.38;;;;;;;;;;4996258;28;20035;-33
2022/02/18 14:37:27;;;;;;;39.25;5.68;;;;;;;;;;4996104;28;20033;-30
2022/02/18 14:39:54;;;;;;;50.15;5.72;;;;;;;;;;4996173;28;20076;-30